Time;durP1;ratioP1;P1;durP2;ratioP2;P2;SDS_P1;SDS_P2;PMS_P1;PMS_P2;Temp;Humidity;BMP_temperature;BMP_pressure;BME280_temperature;BME280_humidity;BME280_pressure;Samples;Min_cycle;Max_cycle;Signal;HPM_P1;HPM_P2
2022/04/14 00:01:53;;;;;;;4.80;2.00;;;17.40;63.40;;;;;;4998856;28;20529;-73
2022/04/14 00:04:19;;;;;;;2.28;1.50;;;17.40;63.50;;;;;;4997591;28;20088;-73
2022/04/14 00:06:45;;;;;;;3.05;1.48;;;17.40;63.40;;;;;;4997760;28;20763;-74
2022/04/14 00:09:11;;;;;;;3.63;1.90;;;17.40;63.40;;;;;;4997745;28;20078;-74
2022/04/14 00:11:38;;;;;;;3.55;1.88;;;17.40;63.40;;;;;;4997029;28;20463;-74
2022/04/14 00:14:05;;;;;;;2.67;1.80;;;17.40;63.40;;;;;;4996763;28;20057;-75
2022/04/14 00:16:30;;;;;;;4.75;2.70;;;17.40;63.40;;;;;;4997659;28;20043;-73
2022/04/14 00:18:56;;;;;;;2.72;2.13;;;17.40;63.40;;;;;;4997460;28;20121;-73
2022/04/14 00:21:22;;;;;;;5.03;2.15;;;17.30;63.40;;;;;;5005287;28;20046;-80
2022/04/14 00:23:47;;;;;;;8.68;2.92;;;17.40;63.40;;;;;;4997325;28;20042;-73
2022/04/14 00:26:13;;;;;;;7.97;4.82;;;17.40;63.30;;;;;;4997455;28;20046;-76
2022/04/14 00:28:39;;;;;;;9.52;5.55;;;17.30;63.30;;;;;;4988371;28;20050;-75
2022/04/14 00:31:05;;;;;;;8.68;5.72;;;17.30;63.30;;;;;;4996863;28;20109;-76
2022/04/14 00:33:31;;;;;;;8.52;5.13;;;17.30;63.40;;;;;;5004645;28;20112;-77
2022/04/14 00:35:57;;;;;;;8.40;4.60;;;17.30;63.70;;;;;;5015972;28;20037;-73
2022/04/14 00:38:22;;;;;;;6.68;4.30;;;17.30;63.60;;;;;;5016250;28;20042;-74
2022/04/14 00:40:49;;;;;;;7.85;4.18;;;17.30;63.60;;;;;;5006509;28;20060;-74
2022/04/14 00:43:16;;;;;;;5.85;4.15;;;17.30;63.60;;;;;;5001996;28;20117;-73
2022/04/14 00:45:43;;;;;;;7.95;4.78;;;17.30;63.60;;;;;;5015576;28;20050;-73
2022/04/14 00:48:08;;;;;;;6.53;4.22;;;17.30;63.60;;;;;;4982605;28;20046;-74
2022/04/14 00:50:34;;;;;;;7.60;4.47;;;17.30;63.60;;;;;;5015984;28;20100;-74
2022/04/14 00:53:00;;;;;;;8.68;4.63;;;17.30;63.50;;;;;;5015690;28;20041;-74
2022/04/14 00:55:26;;;;;;;8.20;3.95;;;17.30;63.50;;;;;;5013248;28;20046;-74
2022/04/14 00:57:52;;;;;;;7.53;4.25;;;17.30;63.60;;;;;;5006277;28;20050;-73
2022/04/14 01:00:18;;;;;;;7.22;4.43;;;17.30;63.50;;;;;;5009276;28;20060;-74
2022/04/14 01:02:44;;;;;;;7.50;4.30;;;17.30;63.60;;;;;;5015537;28;20057;-75
2022/04/14 01:05:10;;;;;;;6.97;4.35;;;17.30;63.50;;;;;;5015595;28;20128;-74
2022/04/14 01:07:37;;;;;;;6.45;3.58;;;17.30;63.60;;;;;;5015821;28;20129;-76
2022/04/14 01:10:06;;;;;;;6.85;4.40;;;17.30;63.50;;;;;;4979682;28;20058;-74
2022/04/14 01:12:32;;;;;;;6.95;4.65;;;17.30;63.50;;;;;;4996231;28;20353;-74
2022/04/14 01:14:58;;;;;;;5.30;3.65;;;17.30;63.50;;;;;;5004217;28;20050;-73
2022/04/14 01:17:24;;;;;;;7.32;4.22;;;17.30;63.50;;;;;;4996289;28;20406;-73
2022/04/14 01:19:50;;;;;;;7.18;4.28;;;17.30;64.10;;;;;;5012249;28;20110;-74
2022/04/14 01:22:25;;;;;;;7.03;4.32;;;17.30;64.10;;;;;;4998166;28;20042;-73
2022/04/14 01:24:55;;;;;;;7.93;4.03;;;17.30;63.50;;;;;;5014942;28;20037;-74
2022/04/14 01:27:20;;;;;;;6.35;3.63;;;17.30;63.40;;;;;;5015221;28;20473;-74
2022/04/14 01:29:46;;;;;;;5.25;3.88;;;17.30;63.40;;;;;;5015139;28;20140;-74
2022/04/14 01:32:12;;;;;;;5.88;4.43;;;17.30;63.50;;;;;;5014818;28;20101;-75
2022/04/14 01:34:38;;;;;;;6.15;3.80;;;17.30;63.50;;;;;;4984584;28;20054;-75
2022/04/14 01:37:04;;;;;;;6.35;3.85;;;17.30;63.40;;;;;;4995779;28;20046;-74
2022/04/14 01:39:30;;;;;;;8.57;4.90;;;17.30;63.40;;;;;;4995996;28;20046;-74
2022/04/14 01:41:56;;;;;;;6.28;3.85;;;17.30;63.40;;;;;;5011169;28;20045;-75
2022/04/14 01:44:22;;;;;;;7.05;4.10;;;17.30;63.40;;;;;;5014945;28;20038;-74
2022/04/14 01:46:47;;;;;;;6.35;4.00;;;17.30;63.30;;;;;;5015075;28;20065;-74
2022/04/14 01:49:13;;;;;;;6.35;4.05;;;17.30;63.30;;;;;;5014699;28;20112;-73
2022/04/14 01:51:39;;;;;;;4.75;3.88;;;17.20;63.30;;;;;;5014973;28;20049;-74
2022/04/14 01:54:05;;;;;;;6.10;4.07;;;17.20;63.30;;;;;;5010009;28;20049;-74
2022/04/14 01:56:31;;;;;;;7.60;3.97;;;17.20;63.20;;;;;;5010345;28;20061;-74
2022/04/14 01:58:57;;;;;;;5.80;3.80;;;17.20;63.20;;;;;;4991593;28;20054;-74
2022/04/14 02:01:24;;;;;;;8.63;4.63;;;17.20;63.20;;;;;;4994802;28;20050;-75
2022/04/14 02:03:50;;;;;;;6.93;4.00;;;17.30;63.30;;;;;;5010467;28;20125;-73
2022/04/14 02:06:16;;;;;;;8.13;4.68;;;17.20;63.20;;;;;;5014368;28;20056;-73
2022/04/14 02:08:42;;;;;;;7.32;4.20;;;17.20;63.20;;;;;;4984252;28;20055;-74
2022/04/14 02:11:08;;;;;;;8.73;4.18;;;17.20;63.20;;;;;;4994726;28;20054;-74
2022/04/14 02:13:34;;;;;;;7.30;4.32;;;17.20;63.10;;;;;;4962311;28;20054;-74
2022/04/14 02:16:00;;;;;;;6.65;4.13;;;17.20;63.10;;;;;;5011387;28;20054;-74
2022/04/14 02:18:26;;;;;;;6.22;3.88;;;17.20;63.10;;;;;;5007078;28;20363;-73
2022/04/14 02:20:52;;;;;;;5.45;3.72;;;17.20;63.10;;;;;;5008123;28;20137;-73
2022/04/14 02:23:18;;;;;;;7.35;4.35;;;17.20;63.10;;;;;;4995359;28;20103;-74
2022/04/14 02:25:44;;;;;;;6.05;3.85;;;17.20;63.10;;;;;;4995536;28;20125;-74
2022/04/14 02:28:10;;;;;;;6.82;4.15;;;17.20;63.10;;;;;;4995359;28;20133;-73
2022/04/14 02:30:36;;;;;;;5.97;3.53;;;17.20;63.10;;;;;;4998484;28;20124;-74
2022/04/14 02:33:02;;;;;;;7.30;4.25;;;17.10;63.00;;;;;;4995318;28;20053;-73
2022/04/14 02:35:28;;;;;;;7.47;4.65;;;17.10;63.00;;;;;;4996036;28;20073;-74
2022/04/14 02:37:56;;;;;;;5.10;3.60;;;17.10;63.00;;;;;;4996599;28;20057;-74
2022/04/14 02:40:23;;;;;;;6.18;4.38;;;17.10;63.00;;;;;;4990297;28;20051;-75
2022/04/14 02:42:50;;;;;;;6.47;3.90;;;17.10;63.00;;;;;;4999348;28;20073;-74
2022/04/14 02:45:16;;;;;;;6.45;4.28;;;17.10;63.00;;;;;;4990592;28;20334;-74
2022/04/14 02:47:41;;;;;;;8.00;4.57;;;17.10;62.90;;;;;;5001083;28;20104;-73
2022/04/14 02:50:08;;;;;;;7.68;4.60;;;17.20;63.00;;;;;;5016802;28;20042;-73
2022/04/14 02:52:33;;;;;;;7.28;4.60;;;17.10;63.00;;;;;;5017805;28;20077;-73
2022/04/14 02:54:59;;;;;;;7.60;4.07;;;17.10;62.90;;;;;;5018051;28;20081;-74
2022/04/14 02:57:25;;;;;;;5.93;4.38;;;17.10;62.90;;;;;;5015848;28;20134;-75
2022/04/14 02:59:50;;;;;;;6.93;4.25;;;17.10;62.90;;;;;;5011656;28;20049;-73
2022/04/14 03:02:16;;;;;;;7.60;4.38;;;17.10;62.90;;;;;;5016089;28;20046;-73
2022/04/14 03:04:42;;;;;;;7.18;4.47;;;17.10;62.90;;;;;;5018088;28;20129;-73
2022/04/14 03:07:08;;;;;;;7.20;4.35;;;17.10;62.90;;;;;;5017974;28;20046;-74
2022/04/14 03:09:33;;;;;;;6.05;4.10;;;17.10;62.90;;;;;;5011649;28;20038;-73
2022/04/14 03:11:59;;;;;;;7.18;4.55;;;17.10;62.90;;;;;;4998914;28;20643;-73
2022/04/14 03:14:25;;;;;;;8.52;4.50;;;17.10;62.90;;;;;;4995394;28;20074;-73
2022/04/14 03:16:50;;;;;;;9.20;5.22;;;17.10;62.80;;;;;;4998481;28;20128;-73
2022/04/14 03:19:16;;;;;;;7.82;4.55;;;17.10;62.80;;;;;;5005996;28;20089;-73
2022/04/14 03:21:42;;;;;;;9.43;4.40;;;17.00;62.80;;;;;;5014697;28;20117;-74
2022/04/14 03:24:07;;;;;;;6.35;4.30;;;17.00;62.80;;;;;;4992697;28;20418;-75
2022/04/14 03:26:33;;;;;;;5.47;4.07;;;17.00;62.80;;;;;;4998013;28;20058;-73
2022/04/14 03:28:59;;;;;;;7.28;4.60;;;17.10;62.80;;;;;;4998268;28;20057;-73
2022/04/14 03:31:24;;;;;;;6.38;4.30;;;17.10;62.80;;;;;;4997981;28;20089;-73
2022/04/14 03:33:50;;;;;;;6.03;4.20;;;17.00;62.80;;;;;;5009743;28;20057;-72
2022/04/14 03:36:16;;;;;;;7.57;4.65;;;17.00;62.80;;;;;;5010290;28;20046;-74
2022/04/14 03:38:41;;;;;;;6.45;4.40;;;17.00;62.90;;;;;;4998430;28;20469;-74
2022/04/14 03:41:07;;;;;;;6.53;4.43;;;17.00;62.90;;;;;;5003989;28;20060;-73
2022/04/14 03:43:34;;;;;;;8.27;5.00;;;17.00;62.90;;;;;;5008043;28;20467;-74
2022/04/14 03:46:00;;;;;;;5.85;4.07;;;17.00;62.80;;;;;;4997733;28;20409;-73
2022/04/14 03:48:26;;;;;;;7.28;4.85;;;17.00;62.80;;;;;;4998046;28;20047;-73
2022/04/14 03:50:53;;;;;;;6.93;4.57;;;17.00;62.90;;;;;;4998024;28;20049;-74
2022/04/14 03:53:19;;;;;;;7.38;4.30;;;17.00;62.80;;;;;;4998051;28;20042;-75
2022/04/14 03:55:48;;;;;;;8.07;4.60;;;17.00;62.80;;;;;;4995689;28;20058;-75
2022/04/14 03:58:15;;;;;;;7.32;4.70;;;17.00;62.80;;;;;;4997734;28;20046;-74
2022/04/14 04:00:41;;;;;;;6.22;4.93;;;17.00;62.80;;;;;;4989990;28;20065;-73
2022/04/14 04:03:09;;;;;;;6.00;4.55;;;17.00;62.80;;;;;;5012260;28;20062;-73
2022/04/14 04:05:34;;;;;;;6.05;4.05;;;16.90;62.80;;;;;;5016599;28;20041;-73
2022/04/14 04:08:00;;;;;;;5.72;4.00;;;17.00;62.80;;;;;;5016714;28;20117;-74
2022/04/14 04:10:26;;;;;;;8.48;4.35;;;17.00;62.80;;;;;;5016796;28;20052;-72
2022/04/14 04:12:51;;;;;;;9.13;3.88;;;17.00;62.80;;;;;;5013755;28;20054;-75
2022/04/14 04:15:17;;;;;;;9.30;5.28;;;16.90;62.80;;;;;;4997558;28;20078;-74
2022/04/14 04:17:45;;;;;;;7.22;5.00;;;17.00;62.80;;;;;;4998606;28;20057;-75
2022/04/14 04:20:11;;;;;;;6.75;4.53;;;17.00;62.90;;;;;;5016648;28;20053;-73
2022/04/14 04:22:36;;;;;;;7.45;4.63;;;16.90;62.90;;;;;;5000690;28;20374;-74
2022/04/14 04:25:03;;;;;;;7.20;4.43;;;17.00;62.90;;;;;;4997353;28;20038;-74
2022/04/14 04:27:29;;;;;;;7.57;4.57;;;16.90;62.80;;;;;;4997593;28;20046;-73
2022/04/14 04:29:55;;;;;;;7.93;5.38;;;16.90;62.90;;;;;;5015129;28;20065;-75
2022/04/14 04:32:21;;;;;;;9.00;5.80;;;16.90;62.80;;;;;;5013856;28;20042;-76
2022/04/14 04:34:47;;;;;;;8.88;5.18;;;16.90;62.60;;;;;;4999045;28;20532;-74
2022/04/14 04:37:13;;;;;;;10.00;5.47;;;16.90;62.70;;;;;;5010490;28;20054;-76
2022/04/14 04:39:39;;;;;;;7.35;5.55;;;16.80;62.90;;;;;;5005670;28;20061;-70
2022/04/14 04:42:05;;;;;;;9.55;5.15;;;16.80;62.90;;;;;;5010606;28;20038;-77
2022/04/14 04:44:30;;;;;;;12.45;4.93;;;16.90;62.80;;;;;;4997132;28;20129;-79
2022/04/14 04:46:56;;;;;;;9.63;5.47;;;17.00;62.90;;;;;;4996996;28;20092;-76
2022/04/14 04:49:22;;;;;;;8.48;4.28;;;17.10;63.20;;;;;;4997111;28;20113;-75
2022/04/14 04:51:47;;;;;;;16.33;5.15;;;17.20;63.20;;;;;;4996992;28;20058;-77
2022/04/14 04:54:13;;;;;;;13.32;5.13;;;17.30;63.50;;;;;;4997129;28;20046;-77
2022/04/14 04:56:39;;;;;;;13.77;4.30;;;17.40;63.50;;;;;;4996482;28;20109;-76
2022/04/14 04:59:04;;;;;;;13.15;4.05;;;17.40;63.70;;;;;;4994196;28;20117;-77
2022/04/14 05:01:30;;;;;;;14.55;4.72;;;17.50;64.00;;;;;;4995762;28;20562;-78
2022/04/14 05:03:56;;;;;;;11.73;4.18;;;17.60;64.40;;;;;;5005803;28;20359;-77
2022/04/14 05:06:21;;;;;;;10.23;4.57;;;17.60;64.50;;;;;;5015832;28;20049;-75
2022/04/14 05:08:47;;;;;;;13.73;4.45;;;17.70;64.70;;;;;;5015414;28;20065;-77
2022/04/14 05:11:13;;;;;;;11.68;4.32;;;17.80;64.90;;;;;;5015450;28;20045;-77
2022/04/14 05:13:39;;;;;;;8.98;3.88;;;17.80;65.00;;;;;;4983571;28;20129;-77
2022/04/14 05:16:07;;;;;;;16.15;4.72;;;17.90;65.00;;;;;;4995320;28;20493;-79
2022/04/14 05:18:36;;;;;;;13.00;4.05;;;18.00;64.90;;;;;;5003405;28;20061;-77
2022/04/14 05:21:02;;;;;;;9.65;4.20;;;18.00;64.90;;;;;;4996396;28;20043;-78
2022/04/14 05:23:27;;;;;;;11.25;4.03;;;18.00;64.70;;;;;;4997315;28;20046;-77
2022/04/14 05:25:56;;;;;;;17.23;4.45;;;18.00;64.60;;;;;;4970098;28;20053;-77
2022/04/14 05:28:21;;;;;;;19.42;4.32;;;18.00;64.90;;;;;;5005105;28;20049;-76
2022/04/14 05:30:47;;;;;;;11.82;3.80;;;18.00;64.80;;;;;;4998704;28;20065;-77
2022/04/14 05:33:13;;;;;;;12.25;4.15;;;18.00;65.20;;;;;;5007083;28;20473;-77
2022/04/14 05:35:39;;;;;;;7.35;3.65;;;18.00;65.30;;;;;;4983559;28;20409;-77
2022/04/14 05:38:06;;;;;;;10.05;3.90;;;18.00;65.30;;;;;;4995652;28;20509;-79
2022/04/14 05:40:32;;;;;;;11.98;4.05;;;18.00;65.50;;;;;;4996108;28;20049;-76
2022/04/14 05:42:58;;;;;;;7.82;3.33;;;17.90;65.60;;;;;;4995838;28;20046;-76
2022/04/14 05:45:24;;;;;;;10.73;4.00;;;17.90;65.80;;;;;;4999315;28;20146;-75
2022/04/14 05:47:50;;;;;;;10.82;4.07;;;17.90;65.80;;;;;;5004839;28;20406;-76
2022/04/14 05:50:16;;;;;;;8.82;4.72;;;17.90;65.90;;;;;;5008066;28;20088;-79
2022/04/14 05:52:42;;;;;;;7.65;3.55;;;17.80;66.00;;;;;;4996306;28;20054;-78
2022/04/14 05:55:08;;;;;;;10.45;3.92;;;17.80;66.00;;;;;;5003893;28;20046;-76
2022/04/14 05:57:34;;;;;;;11.40;4.20;;;17.80;66.00;;;;;;4997457;28;20380;-76
2022/04/14 06:00:00;;;;;;;10.77;3.90;;;17.80;66.10;;;;;;5010156;28;20048;-76
2022/04/14 06:02:26;;;;;;;9.35;4.22;;;17.80;66.20;;;;;;5011504;28;20057;-76
2022/04/14 06:04:52;;;;;;;14.02;3.95;;;17.80;66.00;;;;;;5018975;28;20049;-78
2022/04/14 06:07:18;;;;;;;15.98;4.85;;;17.80;66.20;;;;;;4996556;28;20041;-74
2022/04/14 06:09:44;;;;;;;20.63;6.90;;;17.80;66.30;;;;;;5017455;28;20476;-78
2022/04/14 06:12:10;;;;;;;19.88;5.80;;;17.80;66.10;;;;;;5016365;28;20049;-79
2022/04/14 06:14:36;;;;;;;23.70;5.93;;;17.80;65.70;;;;;;5014350;28;20465;-77
2022/04/14 06:17:02;;;;;;;15.98;6.47;;;17.70;65.60;;;;;;4996024;28;20122;-77
2022/04/14 06:19:28;;;;;;;20.10;6.30;;;17.70;65.40;;;;;;4995930;28;20419;-78
2022/04/14 06:21:54;;;;;;;24.88;6.38;;;17.70;65.40;;;;;;4978558;28;20081;-80
2022/04/14 06:24:19;;;;;;;21.83;6.50;;;17.60;65.40;;;;;;4995287;28;20073;-78
2022/04/14 06:26:45;;;;;;;17.48;6.18;;;17.60;65.30;;;;;;4978170;28;20053;-77
2022/04/14 06:29:11;;;;;;;20.75;5.88;;;17.60;65.40;;;;;;4979602;28;20070;-79
2022/04/14 06:31:37;;;;;;;16.42;5.40;;;17.60;65.40;;;;;;4978379;28;20525;-78
2022/04/14 06:34:06;;;;;;;17.88;6.28;;;17.60;65.40;;;;;;4995344;28;20050;-78
2022/04/14 06:36:32;;;;;;;14.35;5.32;;;17.60;65.00;;;;;;4995114;28;20046;-76
2022/04/14 06:38:58;;;;;;;16.38;4.97;;;17.50;65.00;;;;;;4994937;28;20050;-79
2022/04/14 06:41:25;;;;;;;16.20;6.00;;;17.60;65.10;;;;;;4994601;28;20124;-79
2022/04/14 06:43:50;;;;;;;13.50;6.32;;;17.60;65.40;;;;;;5014666;28;20116;-77
2022/04/14 06:46:17;;;;;;;19.63;7.50;;;17.60;65.40;;;;;;4981478;28;20134;-80
2022/04/14 06:48:43;;;;;;;20.25;7.75;;;17.60;65.70;;;;;;4994413;28;20057;-78
2022/04/14 06:51:09;;;;;;;17.50;7.60;;;17.60;66.00;;;;;;4994685;28;20050;-80
2022/04/14 06:53:35;;;;;;;15.32;7.03;;;17.60;66.00;;;;;;5003166;28;20109;-77
2022/04/14 06:56:04;;;;;;;14.38;7.28;;;17.60;65.90;;;;;;4991546;28;20046;-83
2022/04/14 06:58:30;;;;;;;21.65;8.60;;;17.70;65.90;;;;;;4979542;28;20042;-79
2022/04/14 07:00:56;;;;;;;16.30;7.82;;;17.70;65.70;;;;;;4987171;28;20069;-81
2022/04/14 07:03:26;;;;;;;15.25;8.25;;;17.70;65.40;;;;;;4993140;28;20053;-80
2022/04/14 07:05:56;;;;;;;17.73;8.15;;;17.70;65.30;;;;;;4996845;28;20038;-81
2022/04/14 07:08:24;;;;;;;13.38;8.43;;;17.70;64.90;;;;;;4972965;28;20042;-80
2022/04/14 07:10:51;;;;;;;15.20;8.23;;;17.80;64.80;;;;;;4977735;28;20061;-81
2022/04/14 07:13:17;;;;;;;18.13;9.80;;;17.80;64.70;;;;;;4963807;28;20050;-79
2022/04/14 07:15:43;;;;;;;12.45;8.73;;;17.80;64.60;;;;;;4993803;28;20472;-80
2022/04/14 07:18:09;;;;;;;15.13;8.60;;;17.80;64.50;;;;;;4985146;28;20048;-80
2022/04/14 07:20:38;;;;;;;14.15;8.20;;;17.80;64.50;;;;;;5009718;28;20104;-80
2022/04/14 07:23:05;;;;;;;17.27;8.77;;;17.80;64.30;;;;;;4987928;28;20453;-79
2022/04/14 07:25:33;;;;;;;18.95;9.77;;;17.80;64.50;;;;;;4989947;28;20361;-77
2022/04/14 07:28:00;;;;;;;17.00;8.65;;;17.80;64.80;;;;;;5015188;28;20461;-77
2022/04/14 07:30:28;;;;;;;14.82;7.93;;;17.80;65.00;;;;;;4991890;28;20097;-78
2022/04/14 07:32:54;;;;;;;17.33;8.43;;;17.90;65.60;;;;;;4983862;28;20122;-79
2022/04/14 07:35:22;;;;;;;13.80;7.88;;;17.80;65.90;;;;;;5004946;28;20038;-78
2022/04/14 07:37:49;;;;;;;15.23;7.70;;;17.80;66.10;;;;;;4998353;28;20399;-77
2022/04/14 07:40:15;;;;;;;11.90;7.72;;;17.80;66.40;;;;;;4991633;28;20053;-78
2022/04/14 07:42:46;;;;;;;11.65;6.72;;;17.80;66.60;;;;;;4997784;28;20069;-77
2022/04/14 07:45:15;;;;;;;11.63;6.68;;;17.80;66.60;;;;;;5002232;28;20100;-77
2022/04/14 07:47:42;;;;;;;15.73;7.60;;;17.80;66.70;;;;;;4995903;28;20050;-80
2022/04/14 07:50:15;;;;;;;15.10;7.35;;;17.90;66.80;;;;;;4988581;28;20339;-79
2022/04/14 07:52:56;;;;;;;14.35;6.70;;;17.90;67.10;;;;;;4967925;28;20038;-78
2022/04/14 07:55:24;;;;;;;18.23;8.20;;;17.90;66.90;;;;;;4980831;28;20034;-77
2022/04/14 07:57:51;;;;;;;13.70;7.40;;;17.90;66.90;;;;;;4990083;28;20042;-79
2022/04/14 08:00:20;;;;;;;14.25;7.10;;;17.90;67.20;;;;;;4997938;28;20118;-79
2022/04/14 08:03:04;;;;;;;13.60;7.25;;;17.80;67.20;;;;;;4990921;28;20069;-79
2022/04/14 08:05:42;;;;;;;18.27;6.90;;;17.80;67.10;;;;;;5008481;28;20097;-78
2022/04/14 08:08:16;;;;;;;15.75;6.00;;;17.80;67.30;;;;;;4995646;28;20497;-78
2022/04/14 08:10:44;;;;;;;21.65;6.68;;;17.80;67.20;;;;;;4979529;28;20457;-78
2022/04/14 08:13:17;;;;;;;10.68;5.18;;;17.90;67.70;;;;;;5001311;28;20076;-78
2022/04/14 08:15:51;;;;;;;12.70;5.20;;;17.90;67.80;;;;;;4998571;28;20104;-80
2022/04/14 08:18:19;;;;;;;9.90;5.75;;;17.90;68.00;;;;;;4949282;28;20070;-80
2022/04/14 08:20:45;;;;;;;12.27;5.13;;;17.90;68.30;;;;;;4993704;28;20065;-78
2022/04/14 08:23:14;;;;;;;11.05;6.32;;;17.90;68.30;;;;;;5018454;28;20049;-78
2022/04/14 08:25:40;;;;;;;13.68;5.50;;;18.00;68.30;;;;;;4989144;28;20042;-77
2022/04/14 08:28:07;;;;;;;12.88;5.30;;;18.00;68.10;;;;;;4981342;28;20057;-79
2022/04/14 08:30:36;;;;;;;12.43;4.88;;;18.00;67.90;;;;;;5008585;28;20117;-81
2022/04/14 08:33:07;;;;;;;13.10;4.70;;;18.00;67.70;;;;;;4993259;28;20061;-80
2022/04/14 08:35:34;;;;;;;11.68;5.53;;;18.00;67.80;;;;;;4979710;28;20042;-79
2022/04/14 08:38:03;;;;;;;9.50;4.97;;;18.00;67.40;;;;;;4993730;28;20034;-79
2022/04/14 08:40:35;;;;;;;8.85;4.25;;;18.00;67.40;;;;;;4996275;28;20034;-77
2022/04/14 08:43:03;;;;;;;7.53;4.28;;;18.00;67.30;;;;;;4993159;28;20050;-80
2022/04/14 08:45:34;;;;;;;16.15;4.28;;;18.00;67.40;;;;;;4998273;28;20485;-78
2022/04/14 08:48:01;;;;;;;11.07;4.35;;;18.00;67.40;;;;;;5008035;28;20123;-79
2022/04/14 08:50:28;;;;;;;7.65;3.60;;;18.10;67.40;;;;;;5016170;28;20061;-77
2022/04/14 08:52:54;;;;;;;7.78;3.45;;;18.10;67.20;;;;;;5015770;28;20105;-78
2022/04/14 08:55:21;;;;;;;7.68;3.30;;;18.10;67.10;;;;;;5011201;28;20041;-79
2022/04/14 08:57:47;;;;;;;6.43;3.70;;;18.10;67.00;;;;;;4984274;28;20107;-78
2022/04/14 09:00:18;;;;;;;11.25;4.18;;;18.10;66.90;;;;;;4996251;28;20042;-79
2022/04/14 09:02:46;;;;;;;6.32;3.03;;;18.10;66.80;;;;;;5004385;28;20062;-79
2022/04/14 09:05:17;;;;;;;7.05;2.92;;;18.10;66.80;;;;;;4963236;28;20050;-79
2022/04/14 09:07:46;;;;;;;7.38;3.10;;;18.10;66.70;;;;;;4996790;28;20354;-77
2022/04/14 09:10:12;;;;;;;7.10;3.45;;;18.10;66.70;;;;;;4995908;28;20169;-78
2022/04/14 09:12:38;;;;;;;9.32;2.92;;;18.10;66.70;;;;;;4995918;28;20129;-77
2022/04/14 09:15:05;;;;;;;6.88;2.50;;;18.10;67.00;;;;;;5011957;28;20050;-79
2022/04/14 09:17:31;;;;;;;4.90;2.45;;;18.20;67.00;;;;;;4979322;28;20046;-79
2022/04/14 09:19:57;;;;;;;6.22;2.55;;;18.20;67.00;;;;;;4979097;28;20141;-77
2022/04/14 09:22:23;;;;;;;5.63;2.53;;;18.20;66.90;;;;;;4996179;28;20061;-81
2022/04/14 09:24:57;;;;;;;4.75;1.92;;;18.20;66.80;;;;;;4989882;28;20129;-79
2022/04/14 09:27:23;;;;;;;6.80;2.45;;;18.20;66.80;;;;;;4994492;28;20093;-79
2022/04/14 09:29:49;;;;;;;4.97;1.80;;;18.20;66.80;;;;;;4984415;28;20041;-79
2022/04/14 09:32:39;;;;;;;8.45;2.80;;;18.20;67.00;;;;;;4984747;28;20046;-79
2022/04/14 09:35:23;;;;;;;4.40;2.63;;;18.20;67.10;;;;;;4986294;28;20496;-81
2022/04/14 09:38:13;;;;;;;7.82;2.70;;;18.20;67.10;;;;;;4986910;28;20080;-78
2022/04/14 09:40:40;;;;;;;10.27;3.33;;;18.20;67.40;;;;;;5003960;28;20046;-78
2022/04/14 09:43:06;;;;;;;13.70;4.63;;;18.20;66.40;;;;;;5001425;28;20046;-77
2022/04/14 09:45:35;;;;;;;8.80;5.13;;;18.20;65.30;;;;;;4978235;28;20057;-76
2022/04/14 09:48:06;;;;;;;7.97;5.72;;;18.20;64.50;;;;;;4995141;28;20049;-77
2022/04/14 09:50:39;;;;;;;8.55;5.40;;;18.10;63.80;;;;;;4998304;28;20041;-77
2022/04/14 09:53:08;;;;;;;10.77;4.43;;;18.10;63.30;;;;;;4982491;28;20069;-76
2022/04/14 09:55:51;;;;;;;7.88;4.18;;;18.00;64.00;;;;;;4996052;28;20147;-80
2022/04/14 09:58:19;;;;;;;6.90;3.63;;;18.10;64.90;;;;;;5000493;28;20125;-79
2022/04/14 10:00:48;;;;;;;5.97;3.75;;;18.10;65.30;;;;;;4994701;28;20057;-79
2022/04/14 10:03:21;;;;;;;7.50;3.75;;;18.10;64.90;;;;;;4996269;28;20050;-78
2022/04/14 10:05:50;;;;;;;7.63;3.47;;;18.10;65.30;;;;;;4991335;28;20049;-79
2022/04/14 10:08:16;;;;;;;7.78;4.32;;;18.10;65.50;;;;;;4985479;28;20293;-77
2022/04/14 10:10:47;;;;;;;8.23;3.67;;;18.10;65.50;;;;;;4984908;28;20133;-78
2022/04/14 10:13:14;;;;;;;5.43;3.28;;;18.10;65.40;;;;;;5003133;28;20050;-77
2022/04/14 10:15:45;;;;;;;4.75;3.17;;;18.10;65.50;;;;;;4981325;28;20402;-76
2022/04/14 10:18:15;;;;;;;6.25;3.30;;;18.10;65.60;;;;;;4978651;28;20049;-78
2022/04/14 10:20:43;;;;;;;5.63;3.28;;;18.20;65.60;;;;;;4997535;28;20081;-77
2022/04/14 10:23:11;;;;;;;9.70;3.17;;;18.20;65.40;;;;;;5014579;28;20042;-76
2022/04/14 10:25:38;;;;;;;5.05;3.05;;;18.20;65.40;;;;;;4979068;28;20375;-76
2022/04/14 10:28:15;;;;;;;5.30;2.88;;;18.20;65.10;;;;;;4995339;28;20042;-78
2022/04/14 10:30:49;;;;;;;6.47;3.05;;;18.10;65.10;;;;;;5012976;28;20058;-77
2022/04/14 10:33:16;;;;;;;6.85;2.60;;;18.10;65.10;;;;;;5014439;28;20053;-80
2022/04/14 10:35:42;;;;;;;3.90;2.38;;;18.20;65.20;;;;;;4993097;28;20698;-77
2022/04/14 10:38:15;;;;;;;6.18;2.20;;;18.20;65.30;;;;;;4995079;28;20129;-78
2022/04/14 10:40:51;;;;;;;5.68;2.40;;;18.20;65.20;;;;;;5004002;28;20125;-78
2022/04/14 10:43:20;;;;;;;6.35;2.15;;;18.20;65.40;;;;;;4989998;28;20458;-78
2022/04/14 10:45:51;;;;;;;4.82;2.05;;;18.20;65.40;;;;;;4977995;28;20378;-77
2022/04/14 10:48:34;;;;;;;4.68;1.85;;;18.20;65.30;;;;;;4983297;28;20053;-78
2022/04/14 10:51:23;;;;;;;5.60;2.15;;;18.20;65.50;;;;;;5002002;28;20362;-79
2022/04/14 10:53:50;;;;;;;5.43;2.60;;;18.20;65.60;;;;;;4999893;28;20062;-78
2022/04/14 10:56:44;;;;;;;7.30;2.00;;;18.20;65.60;;;;;;5011637;28;20046;-77
2022/04/14 10:59:14;;;;;;;;;;;18.20;65.90;;;;;;5018326;28;20120;-78
2022/04/14 11:01:46;;;;;;;3.88;1.50;;;18.20;65.80;;;;;;4999577;28;19970;-78
2022/04/14 11:04:41;;;;;;;4.78;1.92;;;18.30;66.00;;;;;;4999139;28;20125;-79
2022/04/14 11:07:12;;;;;;;4.10;1.77;;;18.20;66.00;;;;;;4998955;28;20046;-78
2022/04/14 11:09:48;;;;;;;8.88;2.53;;;18.20;65.90;;;;;;4998875;28;20050;-77
2022/04/14 11:12:18;;;;;;;5.68;1.95;;;18.30;65.80;;;;;;4991550;28;20462;-77
2022/04/14 11:14:52;;;;;;;9.02;2.10;;;18.30;65.90;;;;;;4999201;28;20402;-77
2022/04/14 11:17:48;;;;;;;13.30;2.42;;;18.30;65.90;;;;;;4988269;28;20109;-77
2022/04/14 11:20:23;;;;;;;10.25;2.22;;;18.20;66.10;;;;;;5008798;28;20054;-78
2022/04/14 11:23:08;;;;;;;11.73;2.20;;;18.30;66.40;;;;;;5010382;28;20034;-77
2022/04/14 11:25:41;;;;;;;8.77;2.47;;;18.30;66.30;;;;;;5012346;28;20038;-78
2022/04/14 11:28:20;;;;;;;5.18;1.65;;;18.30;66.30;;;;;;4973119;28;20121;-78
2022/04/14 11:30:49;;;;;;;7.43;2.00;;;18.30;66.30;;;;;;4989120;28;20061;-78
2022/04/14 11:33:34;;;;;;;12.52;2.42;;;18.30;66.60;;;;;;4987202;28;20053;-77
2022/04/14 11:36:16;;;;;;;11.88;2.08;;;18.30;67.10;;;;;;4998937;28;20107;-80
2022/04/14 11:39:18;;;;;;;7.65;1.77;;;18.30;67.10;;;;;;4993729;28;20462;-79
2022/04/14 11:42:08;;;;;;;8.73;1.98;;;18.30;67.40;;;;;;4992552;28;20058;-80
2022/04/14 11:44:35;;;;;;;15.38;2.22;;;18.30;67.40;;;;;;4996519;28;20130;-76
2022/04/14 11:47:04;;;;;;;7.00;1.83;;;18.30;67.20;;;;;;4981203;28;20117;-78
2022/04/14 11:49:34;;;;;;;12.30;2.17;;;18.30;67.10;;;;;;4997925;28;20047;-77
2022/04/14 11:52:05;;;;;;;15.65;2.40;;;18.40;67.20;;;;;;4980888;28;20117;-78
2022/04/14 11:54:30;;;;;;;8.45;1.70;;;18.30;67.70;;;;;;5011898;28;20041;-80
2022/04/14 11:56:58;;;;;;;8.90;1.88;;;18.30;68.20;;;;;;5016356;28;20088;-75
2022/04/14 11:59:35;;;;;;;15.65;2.20;;;18.30;68.30;;;;;;4987122;28;20078;-79
2022/04/14 12:02:03;;;;;;;8.25;2.05;;;18.30;70.00;;;;;;4997029;28;20054;-78
2022/04/14 12:04:42;;;;;;;7.75;2.25;;;18.30;69.50;;;;;;4981584;28;20054;-76
2022/04/14 12:07:08;;;;;;;13.18;2.38;;;18.40;69.90;;;;;;4997575;28;20539;-77
2022/04/14 12:09:34;;;;;;;6.82;2.40;;;18.40;69.20;;;;;;5011237;28;20122;-76
2022/04/14 12:12:15;;;;;;;11.98;2.55;;;18.40;68.40;;;;;;5016589;28;20061;-77
2022/04/14 12:14:48;;;;;;;19.73;3.42;;;18.40;68.20;;;;;;4999676;28;20069;-78
2022/04/14 12:17:16;;;;;;;8.82;2.50;;;18.30;67.60;;;;;;5016596;28;20045;-76
2022/04/14 12:19:45;;;;;;;11.48;2.80;;;18.30;67.60;;;;;;4992532;28;20092;-77
2022/04/14 12:22:12;;;;;;;11.52;3.13;;;18.40;67.20;;;;;;4997708;28;20050;-78
2022/04/14 12:24:37;;;;;;;8.52;2.25;;;18.30;67.00;;;;;;4980212;28;20482;-78
2022/04/14 12:27:04;;;;;;;7.85;2.58;;;18.30;67.00;;;;;;4989114;28;20042;-79
2022/04/14 12:29:30;;;;;;;7.38;2.40;;;18.30;67.10;;;;;;4997055;28;20452;-75
2022/04/14 12:32:17;;;;;;;7.07;2.58;;;18.40;67.30;;;;;;4990451;28;20117;-79
2022/04/14 12:34:45;;;;;;;13.40;2.75;;;18.40;67.20;;;;;;5014806;28;20046;-76
2022/04/14 12:37:13;;;;;;;6.90;2.10;;;18.30;66.80;;;;;;5016148;28;20050;-79
2022/04/14 12:40:11;;;;;;;10.98;2.88;;;18.30;66.70;;;;;;4995860;28;20062;-79
2022/04/14 12:42:39;;;;;;;8.40;2.40;;;18.30;66.90;;;;;;4980369;28;20054;-79
2022/04/14 12:45:09;;;;;;;6.65;2.85;;;18.30;66.50;;;;;;5014892;28;20115;-80
2022/04/14 12:47:36;;;;;;;7.40;1.90;;;18.30;66.50;;;;;;4983598;28;20046;-78
2022/04/14 12:50:04;;;;;;;6.32;2.22;;;18.30;66.40;;;;;;4979473;28;20053;-80